createdAt,value
2022-08-03T00:02:19.905Z,24.67
2022-08-03T00:04:47.666Z,24.37
2022-08-03T00:07:15.739Z,24.62
2022-08-03T00:09:43.296Z,24.93
2022-08-03T00:12:10.652Z,24.88
2022-08-03T00:14:37.800Z,24.57
2022-08-03T00:17:05.019Z,24.32
2022-08-03T00:19:32.267Z,24.69
2022-08-03T00:21:59.456Z,24.97
2022-08-03T00:24:26.715Z,24.72
2022-08-03T00:26:54.266Z,24.58
2022-08-03T00:29:21.516Z,24.45
2022-08-03T00:31:52.510Z,24.43
2022-08-03T00:34:57.410Z,24.64
2022-08-03T00:37:13.791Z,24.55
2022-08-03T00:39:41.248Z,24.38
2022-08-03T00:42:08.398Z,24.28
2022-08-03T00:44:45.788Z,24.04
2022-08-03T00:47:13.553Z,24.44
2022-08-03T00:49:42.023Z,24.57
2022-08-03T00:52:10.922Z,24.46
2022-08-03T00:54:38.935Z,24.19
2022-08-03T00:57:06.755Z,24.06
2022-08-03T00:59:34.930Z,24.48
2022-08-03T01:02:02.592Z,24.73
2022-08-03T01:04:29.745Z,24.72
2022-08-03T01:07:22.844Z,24.45
2022-08-03T01:10:02.394Z,24.07
2022-08-03T01:12:36.488Z,24.24
2022-08-03T01:15:30.050Z,24.49
2022-08-03T01:18:10.700Z,24.43
2022-08-03T01:20:43.802Z,24.18
2022-08-03T01:23:48.916Z,24.02
2022-08-03T01:26:49.245Z,24.50
2022-08-03T01:29:50.628Z,24.62
2022-08-03T01:32:59.770Z,24.31
2022-08-03T01:35:14.946Z,24.18
2022-08-03T01:37:57.100Z,24.15
2022-08-03T01:40:27.582Z,24.64
2022-08-03T01:42:57.951Z,24.84
2022-08-03T01:45:26.373Z,24.86
2022-08-03T01:47:55.580Z,24.63
2022-08-03T01:50:29.887Z,24.34
2022-08-03T01:52:58.880Z,24.61
2022-08-03T01:55:29.984Z,24.74
2022-08-03T01:58:06.087Z,24.66
2022-08-03T02:00:37.508Z,24.27
2022-08-03T02:03:07.148Z,23.95
2022-08-03T02:05:35.294Z,24.31
2022-08-03T02:08:05.251Z,24.59
2022-08-03T02:10:35.769Z,24.33
2022-08-03T02:13:06.631Z,23.98
2022-08-03T02:15:36.262Z,23.81
2022-08-03T02:18:06.405Z,24.08
2022-08-03T02:20:36.706Z,24.27
2022-08-03T02:23:04.265Z,24.22
2022-08-03T02:25:33.860Z,24.11
2022-08-03T02:28:15.768Z,23.91
2022-08-03T02:30:45.744Z,24.11
2022-08-03T02:33:25.375Z,24.36
2022-08-03T02:35:54.163Z,24.30
2022-08-03T02:38:26.523Z,24.17
2022-08-03T02:40:58.116Z,23.91
2022-08-03T02:43:25.698Z,24.19
2022-08-03T02:45:54.793Z,24.40
2022-08-03T02:48:26.972Z,24.50
2022-08-03T02:50:57.328Z,24.42
2022-08-03T02:53:29.657Z,24.23
2022-08-03T02:55:58.345Z,23.93
2022-08-03T02:58:26.623Z,24.30
2022-08-03T03:00:54.459Z,24.55
2022-08-03T03:03:22.967Z,24.60
2022-08-03T03:05:57.488Z,24.58
2022-08-03T03:08:28.630Z,24.20
2022-08-03T03:11:01.931Z,24.01
2022-08-03T03:13:31.441Z,24.30
2022-08-03T03:16:01.960Z,24.45
2022-08-03T03:18:31.305Z,24.43
2022-08-03T03:21:00.910Z,24.15
2022-08-03T03:23:29.457Z,24.07
2022-08-03T03:25:58.714Z,23.91
2022-08-03T03:28:26.930Z,24.32
2022-08-03T03:30:54.277Z,24.63
2022-08-03T03:33:22.896Z,24.64
2022-08-03T03:35:51.959Z,24.49
2022-08-03T03:38:20.213Z,24.43
2022-08-03T03:40:48.002Z,24.17
2022-08-03T03:43:15.453Z,24.38
2022-08-03T03:45:43.422Z,24.62
2022-08-03T03:48:10.982Z,24.63
2022-08-03T03:50:41.204Z,24.48
2022-08-03T03:53:12.689Z,24.49
2022-08-03T03:56:02.432Z,24.45
2022-08-03T03:58:28.666Z,25.01
2022-08-03T04:00:55.999Z,25.08
2022-08-03T04:03:23.575Z,25.03
2022-08-03T04:06:09.463Z,24.88
2022-08-03T04:08:55.251Z,24.55
2022-08-03T04:11:43.802Z,25.10
2022-08-03T04:14:21.295Z,25.35
2022-08-03T04:17:02.884Z,25.36
2022-08-03T04:19:40.892Z,25.18
2022-08-03T04:22:12.137Z,24.96
2022-08-03T04:24:43.493Z,25.47
2022-08-03T04:27:14.552Z,25.60
2022-08-03T04:29:48.798Z,25.67
2022-08-03T04:32:17.909Z,25.50
2022-08-03T04:34:45.537Z,25.45
2022-08-03T04:37:18.191Z,25.49
2022-08-03T04:39:49.520Z,26.39
2022-08-03T04:42:20.133Z,27.62
2022-08-03T04:44:49.656Z,28.53
2022-08-03T04:47:17.218Z,29.04
2022-08-03T04:49:44.783Z,29.34
2022-08-03T04:52:12.131Z,29.33
2022-08-03T04:54:44.383Z,29.39
2022-08-03T04:57:22.085Z,29.25
2022-08-03T05:00:02.485Z,29.23
2022-08-03T05:02:32.207Z,28.77
2022-08-03T05:04:59.829Z,28.96
2022-08-03T05:07:35.559Z,28.97
2022-08-03T05:10:15.009Z,28.91
2022-08-03T05:12:45.315Z,29.01
2022-08-03T05:15:13.327Z,29.44
2022-08-03T05:17:40.708Z,29.73
2022-08-03T05:20:09.042Z,29.79
2022-08-03T05:22:36.300Z,30.02
2022-08-03T05:25:04.423Z,30.10
2022-08-03T05:27:31.516Z,30.40
2022-08-03T05:30:27.346Z,30.04
2022-08-03T05:32:46.400Z,30.03
2022-08-03T05:36:02.098Z,29.81
2022-08-03T05:38:02.712Z,29.27
2022-08-03T05:40:31.196Z,28.82
2022-08-03T05:42:58.855Z,28.43
2022-08-03T05:45:28.429Z,28.16
2022-08-03T05:47:56.273Z,28.27
2022-08-03T05:50:23.662Z,28.15
2022-08-03T05:52:50.880Z,27.93
2022-08-03T05:55:19.316Z,27.72
2022-08-03T05:57:49.298Z,27.61
2022-08-03T06:00:17.354Z,27.97
2022-08-03T06:02:44.859Z,28.15
2022-08-03T06:05:12.217Z,28.29
2022-08-03T06:07:39.467Z,28.32
2022-08-03T06:10:35.524Z,28.57
2022-08-03T06:12:54.672Z,28.83
2022-08-03T06:15:22.260Z,29.12
2022-08-03T06:17:51.519Z,29.36
2022-08-03T06:20:21.005Z,29.25
2022-08-03T06:22:51.393Z,29.52
2022-08-03T06:25:27.817Z,30.04
2022-08-03T06:27:55.073Z,30.47
2022-08-03T06:30:22.422Z,30.22
2022-08-03T06:32:51.849Z,30.67
2022-08-03T06:35:20.436Z,30.82
2022-08-03T06:37:49.709Z,31.03
2022-08-03T06:40:30.066Z,30.50
2022-08-03T06:43:02.874Z,30.23
2022-08-03T06:45:31.591Z,30.24
2022-08-03T06:48:05.080Z,31.38
2022-08-03T06:50:33.354Z,32.17
2022-08-03T06:53:02.474Z,32.48
2022-08-03T06:55:30.067Z,32.21
2022-08-03T06:57:59.813Z,31.48
2022-08-03T07:00:31.232Z,31.09
2022-08-03T07:02:58.711Z,30.76
2022-08-03T07:05:26.549Z,30.31
2022-08-03T07:08:02.074Z,29.94
2022-08-03T07:10:29.554Z,29.58
2022-08-03T07:12:57.036Z,29.50
2022-08-03T07:15:54.989Z,29.38
2022-08-03T07:18:12.405Z,29.32
2022-08-03T07:20:39.653Z,29.20
2022-08-03T07:23:06.804Z,29.11
2022-08-03T07:25:34.159Z,28.86
2022-08-03T07:28:01.409Z,28.58
2022-08-03T07:30:29.017Z,28.44
2022-08-03T07:32:56.222Z,28.18
2022-08-03T07:35:25.082Z,27.92
2022-08-03T07:37:55.040Z,28.03
2022-08-03T07:40:22.819Z,28.54
2022-08-03T07:42:53.326Z,28.82
2022-08-03T07:45:23.587Z,28.84
2022-08-03T07:47:53.228Z,28.66
2022-08-03T07:50:21.331Z,28.53
2022-08-03T07:52:50.211Z,28.36
2022-08-03T07:55:24.046Z,28.31
2022-08-03T07:58:00.487Z,28.11
2022-08-03T08:00:27.755Z,28.02
2022-08-03T08:02:54.991Z,28.56
2022-08-03T08:05:22.248Z,28.99
2022-08-03T08:07:51.075Z,29.11
2022-08-03T08:10:19.566Z,28.83
2022-08-03T08:12:47.274Z,28.65
2022-08-03T08:15:14.935Z,28.57
2022-08-03T08:17:47.309Z,28.38
2022-08-03T08:20:28.437Z,28.21
2022-08-03T08:23:09.623Z,27.81
2022-08-03T08:25:53.096Z,28.22
2022-08-03T08:28:32.608Z,28.73
2022-08-03T08:31:01.861Z,29.02
2022-08-03T08:33:42.486Z,29.17
2022-08-03T08:36:15.778Z,29.01
2022-08-03T08:38:45.131Z,29.03
2022-08-03T08:41:14.414Z,29.11
2022-08-03T08:43:42.414Z,29.14
2022-08-03T08:46:23.589Z,29.27
2022-08-03T08:48:52.832Z,29.48
2022-08-03T08:51:22.756Z,29.32
2022-08-03T08:53:53.134Z,29.45
2022-08-03T08:56:23.405Z,29.53
2022-08-03T08:59:00.779Z,29.54
2022-08-03T09:01:28.591Z,29.30
2022-08-03T09:03:56.022Z,29.28
2022-08-03T09:06:24.538Z,29.31
2022-08-03T09:08:51.782Z,29.55
2022-08-03T09:12:00.356Z,29.73
2022-08-03T09:14:33.603Z,30.47
2022-08-03T09:17:02.127Z,30.77
2022-08-03T09:19:31.167Z,30.76
2022-08-03T09:22:15.225Z,30.98
2022-08-03T09:25:23.503Z,31.04
2022-08-03T09:27:48.496Z,30.77
2022-08-03T09:30:34.508Z,30.34
2022-08-03T09:33:08.393Z,29.77
2022-08-03T09:35:57.636Z,29.45
2022-08-03T09:38:29.012Z,28.66
2022-08-03T09:41:00.493Z,27.67
2022-08-03T09:43:28.611Z,27.53
2022-08-03T09:46:07.769Z,27.47
2022-08-03T09:48:37.067Z,26.86
2022-08-03T09:51:13.100Z,26.50
2022-08-03T09:53:59.713Z,26.20
2022-08-03T09:56:45.507Z,26.72
2022-08-03T09:59:14.620Z,27.03
2022-08-03T10:01:42.594Z,27.16
2022-08-03T10:06:15.683Z,26.80
2022-08-03T10:08:43.265Z,27.84
2022-08-03T10:11:10.496Z,28.39
2022-08-03T10:13:38.773Z,28.73
2022-08-03T10:16:23.180Z,28.78
2022-08-03T10:18:52.380Z,28.70
2022-08-03T10:21:20.599Z,28.79
2022-08-03T10:23:48.886Z,29.13
2022-08-03T10:26:22.801Z,29.38
2022-08-03T10:28:53.549Z,29.42
2022-08-03T10:31:24.038Z,29.12
2022-08-03T10:33:53.332Z,28.68
2022-08-03T10:36:24.494Z,28.77
2022-08-03T10:38:53.858Z,28.84
2022-08-03T10:41:23.644Z,28.54
2022-08-03T10:43:56.920Z,28.20
2022-08-03T10:46:26.521Z,28.03
2022-08-03T10:48:54.284Z,27.94
2022-08-03T10:51:23.066Z,28.24
2022-08-03T10:53:54.676Z,28.48
2022-08-03T10:56:54.591Z,28.63
2022-08-03T10:59:46.972Z,28.57
2022-08-03T11:02:18.163Z,28.59
2022-08-03T11:04:45.568Z,28.61
2022-08-03T11:07:23.471Z,29.21
2022-08-03T11:09:52.967Z,29.65
2022-08-03T11:12:32.297Z,29.77
2022-08-03T11:15:02.836Z,29.71
2022-08-03T11:17:30.275Z,29.42
2022-08-03T11:19:58.653Z,29.40
2022-08-03T11:22:47.346Z,29.53
2022-08-03T11:25:54.345Z,29.69
2022-08-03T11:28:27.197Z,29.37
2022-08-03T11:30:54.552Z,29.19
2022-08-03T11:33:32.041Z,28.95
2022-08-03T11:36:02.091Z,29.49
2022-08-03T11:38:29.412Z,29.88
2022-08-03T11:40:56.665Z,30.19
2022-08-03T11:43:37.701Z,30.22
2022-08-03T11:46:13.793Z,30.16
2022-08-03T11:49:09.300Z,29.98
2022-08-03T11:51:38.134Z,29.85
2022-08-03T11:54:06.805Z,29.85
2022-08-03T11:56:54.118Z,29.79
2022-08-03T11:59:33.060Z,29.45
2022-08-03T12:02:13.545Z,28.75
2022-08-03T12:05:10.344Z,28.26
2022-08-03T12:08:03.665Z,27.65
2022-08-03T12:10:34.548Z,28.02
2022-08-03T12:13:03.089Z,28.36
2022-08-03T12:15:34.130Z,28.32
2022-08-03T12:18:12.590Z,28.28
2022-08-03T12:20:40.350Z,28.08
2022-08-03T12:23:10.055Z,28.68
2022-08-03T12:25:40.029Z,29.12
2022-08-03T12:28:37.668Z,29.14
2022-08-03T12:31:13.385Z,28.97
2022-08-03T12:34:05.420Z,28.50
2022-08-03T12:36:35.031Z,28.22
2022-08-03T12:39:09.353Z,28.16
2022-08-03T12:41:38.850Z,28.16
2022-08-03T12:44:07.647Z,28.03
2022-08-03T12:46:34.902Z,27.84
2022-08-03T12:49:15.614Z,28.18
2022-08-03T12:51:42.911Z,28.17
2022-08-03T12:54:34.847Z,27.84
2022-08-03T12:57:02.094Z,27.81
2022-08-03T12:59:40.565Z,27.52
2022-08-03T13:02:18.879Z,27.66
2022-08-03T13:04:48.160Z,28.12
2022-08-03T13:07:16.536Z,28.44
2022-08-03T13:09:49.850Z,28.43
2022-08-03T13:12:20.913Z,28.45
2022-08-03T13:14:55.306Z,28.43
2022-08-03T13:17:23.120Z,28.92
2022-08-03T13:19:50.779Z,29.30
2022-08-03T13:22:20.182Z,29.49
2022-08-03T13:24:49.610Z,29.38
2022-08-03T13:28:01.092Z,29.32
2022-08-03T13:30:05.287Z,29.19
2022-08-03T13:32:34.070Z,29.59
2022-08-03T13:35:03.004Z,29.72
2022-08-03T13:37:32.605Z,29.81
2022-08-03T13:40:03.059Z,29.72
2022-08-03T13:42:34.406Z,29.59
2022-08-03T13:45:02.740Z,29.33
2022-08-03T13:47:30.084Z,29.69
2022-08-03T13:49:59.780Z,30.01
2022-08-03T13:52:34.653Z,30.01
2022-08-03T13:55:05.459Z,29.65
2022-08-03T13:58:11.821Z,29.28
2022-08-03T14:00:27.164Z,28.63
2022-08-03T14:03:06.766Z,28.15
2022-08-03T14:05:38.599Z,27.68
2022-08-03T14:08:07.220Z,26.87
2022-08-03T14:10:37.176Z,26.35
2022-08-03T14:13:05.722Z,26.03
2022-08-03T14:15:37.424Z,26.39
2022-08-03T14:18:12.685Z,26.40
2022-08-03T14:20:50.059Z,26.27
2022-08-03T14:23:21.885Z,25.95
2022-08-03T14:25:51.617Z,25.87
2022-08-03T14:28:21.454Z,26.14
2022-08-03T14:30:48.878Z,26.25
2022-08-03T14:33:16.231Z,26.17
2022-08-03T14:35:43.817Z,26.22
2022-08-03T14:38:11.278Z,26.55
2022-08-03T14:40:38.469Z,26.69
2022-08-03T14:43:05.644Z,26.62
2022-08-03T14:45:33.030Z,26.49
2022-08-03T14:50:30.252Z,26.35
2022-08-03T14:50:51.391Z,26.69
2022-08-03T14:53:19.742Z,26.99
2022-08-03T14:55:51.520Z,27.01
2022-08-03T14:58:25.406Z,26.99
2022-08-03T15:00:54.274Z,26.88
2022-08-03T15:03:25.800Z,27.22
2022-08-03T15:05:53.547Z,27.63
2022-08-03T15:08:22.332Z,27.68
2022-08-03T15:10:50.768Z,27.55
2022-08-03T15:13:18.593Z,27.46
2022-08-03T15:15:46.167Z,27.24
2022-08-03T15:18:13.490Z,27.50
2022-08-03T15:20:46.198Z,28.00
2022-08-03T15:23:16.168Z,28.12
2022-08-03T15:26:32.315Z,28.02
2022-08-03T15:28:32.618Z,27.71
2022-08-03T15:31:00.684Z,27.39
2022-08-03T15:33:29.467Z,27.48
2022-08-03T15:35:57.639Z,27.84
2022-08-03T15:38:26.185Z,27.88
2022-08-03T15:40:55.183Z,27.77
2022-08-03T15:43:23.912Z,27.56
2022-08-03T15:46:26.471Z,27.26
2022-08-03T15:48:40.522Z,27.59
2022-08-03T15:51:09.049Z,27.96
2022-08-03T15:53:36.769Z,27.99
2022-08-03T15:56:11.221Z,27.81
2022-08-03T15:59:09.726Z,27.56
2022-08-03T16:01:28.112Z,27.22
2022-08-03T16:03:55.368Z,27.38
2022-08-03T16:06:35.289Z,27.66
2022-08-03T16:09:24.306Z,27.57
2022-08-03T16:11:56.038Z,27.41
2022-08-03T16:14:32.385Z,27.27
2022-08-03T16:17:03.855Z,26.98
2022-08-03T16:19:31.224Z,27.24
2022-08-03T16:21:58.477Z,27.50
2022-08-03T16:24:27.723Z,27.51
2022-08-03T16:26:56.146Z,27.45
2022-08-03T16:29:23.917Z,27.30
2022-08-03T16:31:52.694Z,26.89
2022-08-03T16:34:20.704Z,27.12
2022-08-03T16:36:48.017Z,27.45
2022-08-03T16:39:15.605Z,27.58
2022-08-03T16:41:54.102Z,27.61
2022-08-03T16:44:31.419Z,27.38
2022-08-03T16:46:59.789Z,27.10
2022-08-03T16:49:55.126Z,27.33
2022-08-03T16:52:16.691Z,27.69
2022-08-03T16:54:52.735Z,27.76
2022-08-03T16:57:31.824Z,27.66
2022-08-03T17:00:12.052Z,27.33
2022-08-03T17:02:48.078Z,27.07
2022-08-03T17:05:15.750Z,27.35
2022-08-03T17:07:47.006Z,27.53
2022-08-03T17:10:21.932Z,27.47
2022-08-03T17:12:54.853Z,27.33
2022-08-03T17:15:38.322Z,27.20
2022-08-03T17:18:18.398Z,26.94
2022-08-03T17:20:51.048Z,27.20
2022-08-03T17:23:34.749Z,27.41
2022-08-03T17:26:10.573Z,27.40
2022-08-03T17:28:52.022Z,27.30
2022-08-03T17:31:31.234Z,27.12
2022-08-03T17:34:01.753Z,26.76
2022-08-03T17:36:53.982Z,26.88
2022-08-03T17:39:27.045Z,27.11
2022-08-03T17:42:29.015Z,27.15
2022-08-03T17:44:54.619Z,26.97
2022-08-03T17:47:24.023Z,26.87
2022-08-03T17:49:57.111Z,27.04
2022-08-03T17:52:30.609Z,27.29
2022-08-03T17:55:56.878Z,27.27
2022-08-03T17:58:15.082Z,27.18
2022-08-03T18:01:04.971Z,26.91
2022-08-03T18:03:59.325Z,26.54
2022-08-03T18:06:31.840Z,26.94
2022-08-03T18:10:06.386Z,27.22
2022-08-03T18:11:54.184Z,27.12
2022-08-03T18:14:35.923Z,26.94
2022-08-03T18:17:10.545Z,26.59
2022-08-03T18:20:01.991Z,26.91
2022-08-03T18:22:30.595Z,27.16
2022-08-03T18:25:00.620Z,27.10
2022-08-03T18:27:42.488Z,26.91
2022-08-03T18:30:14.620Z,26.55
2022-08-03T18:33:00.713Z,26.82
2022-08-03T18:35:53.690Z,26.97
2022-08-03T18:38:18.928Z,26.87
2022-08-03T18:40:48.438Z,26.85
2022-08-03T18:43:17.758Z,26.70
2022-08-03T18:45:55.754Z,26.58
2022-08-03T18:48:28.881Z,26.83
2022-08-03T18:50:59.177Z,26.98
2022-08-03T18:54:01.917Z,26.86
2022-08-03T18:56:45.376Z,26.63
2022-08-03T18:59:38.259Z,26.34
2022-08-03T19:02:23.208Z,26.54
2022-08-03T19:04:54.545Z,26.80
2022-08-03T19:07:27.288Z,26.73
2022-08-03T19:09:59.295Z,26.57
2022-08-03T19:12:48.389Z,26.34
2022-08-03T19:15:16.012Z,26.39
2022-08-03T19:17:52.958Z,26.43
2022-08-03T19:20:26.440Z,26.42
2022-08-03T19:22:57.019Z,26.25
2022-08-03T19:25:34.954Z,25.95
2022-08-03T19:28:06.181Z,26.24
2022-08-03T19:30:40.130Z,26.38
2022-08-03T19:33:17.056Z,26.27
2022-08-03T19:35:55.436Z,26.15
2022-08-03T19:38:28.203Z,25.98
2022-08-03T19:41:03.864Z,26.21
2022-08-03T19:43:49.346Z,26.37
2022-08-03T19:46:30.168Z,26.37
2022-08-03T19:49:19.621Z,26.14
2022-08-03T19:52:02.453Z,25.78
2022-08-03T19:54:53.305Z,26.15
2022-08-03T19:57:25.062Z,26.42
2022-08-03T19:59:54.099Z,26.29
2022-08-03T20:02:27.087Z,26.12
2022-08-03T20:04:59.787Z,25.99
2022-08-03T20:07:30.474Z,26.28
2022-08-03T20:10:01.283Z,26.51
2022-08-03T20:12:33.097Z,26.47
2022-08-03T20:15:04.706Z,26.22
2022-08-03T20:17:56.178Z,26.12
2022-08-03T20:20:23.537Z,26.00
2022-08-03T20:22:57.719Z,26.31
2022-08-03T20:25:38.335Z,26.48
2022-08-03T20:28:15.294Z,26.30
2022-08-03T20:30:47.413Z,26.01
2022-08-03T20:33:19.011Z,26.35
2022-08-03T20:35:49.657Z,26.51
2022-08-03T20:38:20.274Z,26.55
2022-08-03T20:40:54.782Z,26.42
2022-08-03T20:43:22.546Z,26.06
2022-08-03T20:46:00.734Z,26.16
2022-08-03T20:48:37.572Z,26.53
2022-08-03T20:51:15.713Z,26.53
2022-08-03T20:53:57.032Z,26.30
2022-08-03T20:56:33.732Z,26.00
2022-08-03T20:59:06.111Z,26.25
2022-08-03T21:01:36.406Z,26.47
2022-08-03T21:04:06.737Z,26.35
2022-08-03T21:06:45.659Z,26.18
2022-08-03T21:09:24.872Z,25.92
2022-08-03T21:12:03.525Z,26.34
2022-08-03T21:14:51.971Z,26.52
2022-08-03T21:17:39.170Z,26.43
2022-08-03T21:20:10.529Z,26.26
2022-08-03T21:22:39.931Z,25.96
2022-08-03T21:25:09.513Z,26.11
2022-08-03T21:27:37.502Z,26.25
2022-08-03T21:30:08.437Z,26.21
2022-08-03T21:32:36.516Z,26.07
2022-08-03T21:35:04.468Z,25.83
2022-08-03T21:37:31.716Z,26.23
2022-08-03T21:39:59.272Z,26.30
2022-08-03T21:42:26.835Z,26.22
2022-08-03T21:44:54.539Z,26.10
2022-08-03T21:47:23.947Z,25.91
2022-08-03T21:50:08.719Z,25.97
2022-08-03T21:52:42.819Z,26.25
2022-08-03T21:55:18.178Z,26.18
2022-08-03T21:57:53.086Z,25.93
2022-08-03T22:00:23.274Z,25.70
2022-08-03T22:02:57.458Z,26.05
2022-08-03T22:05:42.608Z,26.24
2022-08-03T22:08:13.915Z,26.09
2022-08-03T22:10:43.970Z,26.01
2022-08-03T22:13:13.170Z,25.77
2022-08-03T22:15:41.394Z,26.05
2022-08-03T22:18:08.727Z,26.32
2022-08-03T22:20:36.544Z,26.26
2022-08-03T22:23:06.288Z,26.05
2022-08-03T22:25:39.764Z,25.71
2022-08-03T22:28:11.692Z,25.44
2022-08-03T22:30:40.480Z,25.92
2022-08-03T22:33:11.479Z,26.22
2022-08-03T22:35:47.832Z,26.15
2022-08-03T22:38:17.900Z,25.96
2022-08-03T22:40:48.671Z,25.62
2022-08-03T22:43:16.534Z,25.79
2022-08-03T22:46:10.171Z,26.06
2022-08-03T22:48:40.982Z,26.18
2022-08-03T22:51:09.586Z,25.88
2022-08-03T22:53:37.167Z,25.66
2022-08-03T22:56:05.012Z,25.81
2022-08-03T22:58:32.177Z,25.90
2022-08-03T23:01:06.172Z,25.94
2022-08-03T23:03:59.853Z,25.91
2022-08-03T23:06:26.676Z,25.68
2022-08-03T23:08:54.619Z,25.36
2022-08-03T23:11:24.261Z,25.63
2022-08-03T23:13:57.154Z,25.83
2022-08-03T23:16:29.046Z,25.81
2022-08-03T23:18:59.796Z,25.67
2022-08-03T23:22:00.385Z,25.34
2022-08-03T23:24:33.055Z,25.60
2022-08-03T23:27:03.201Z,25.79
2022-08-03T23:29:34.010Z,25.74
2022-08-03T23:32:02.246Z,25.61
2022-08-03T23:34:51.760Z,25.38
2022-08-03T23:37:20.836Z,25.77
2022-08-03T23:39:49.129Z,25.88
2022-08-03T23:42:21.220Z,25.89
2022-08-03T23:44:54.285Z,25.68
2022-08-03T23:47:21.602Z,25.43
2022-08-03T23:49:50.068Z,25.62
2022-08-03T23:52:45.741Z,25.84
2022-08-03T23:55:43.504Z,25.84
2022-08-03T23:58:49.863Z,25.67
